Time;durP1;ratioP1;P1;durP2;ratioP2;P2;SDS_P1;SDS_P2;PMS_P1;PMS_P2;Temp;Humidity;BMP_temperature;BMP_pressure;BME280_temperature;BME280_humidity;BME280_pressure;Samples;Min_cycle;Max_cycle;Signal;HPM_P1;HPM_P2
2023/02/06 00:00:45;;;;;;;;;;;24.80;99.90;;;;;;5014856;28;19967;-59
2023/02/06 00:03:12;;;;;;;;;;;24.80;99.90;;;;;;5014949;28;19925;-59
2023/02/06 00:05:39;;;;;;;;;;;24.70;99.90;;;;;;5014845;28;19917;-60
2023/02/06 00:08:06;;;;;;;;;;;24.70;99.90;;;;;;5014634;28;19924;-60
2023/02/06 00:10:33;;;;;;;;;;;24.70;99.90;;;;;;5014170;28;19910;-59
2023/02/06 00:12:59;;;;;;;;;;;24.70;99.90;;;;;;5014897;28;19925;-59
2023/02/06 00:15:26;;;;;;;;;;;24.70;99.90;;;;;;5014450;28;20295;-59
2023/02/06 00:17:53;;;;;;;;;;;24.80;99.90;;;;;;5014711;28;19914;-59
2023/02/06 00:20:19;;;;;;;;;;;24.80;99.90;;;;;;5014321;28;19961;-60
2023/02/06 00:22:46;;;;;;;;;;;24.80;99.90;;;;;;5014709;28;19917;-59
2023/02/06 00:25:13;;;;;;;;;;;24.80;99.90;;;;;;4996596;28;20290;-61
2023/02/06 00:27:39;;;;;;;;;;;24.80;99.90;;;;;;5014594;28;20059;-65
2023/02/06 00:30:06;;;;;;;;;;;24.70;99.90;;;;;;5013990;28;19968;-61
2023/02/06 00:32:34;;;;;;;;;;;24.80;99.90;;;;;;5014391;28;19909;-59
2023/02/06 00:35:00;;;;;;;;;;;24.80;99.90;;;;;;5014530;28;19910;-60
2023/02/06 00:37:27;;;;;;;;;;;25.00;99.90;;;;;;5014243;28;20352;-59
2023/02/06 00:39:54;;;;;;;;;;;25.10;99.90;;;;;;5013756;28;19917;-59
2023/02/06 00:42:20;;;;;;;;;;;25.20;99.90;;;;;;5014245;28;19909;-59
2023/02/06 00:44:47;;;;;;;;;;;25.30;99.90;;;;;;5013950;28;19915;-59
2023/02/06 00:47:13;;;;;;;;;;;25.40;99.90;;;;;;5013777;28;19914;-58
2023/02/06 00:49:40;;;;;;;;;;;25.40;99.90;;;;;;5013839;28;20016;-62
2023/02/06 00:52:08;;;;;;;;;;;25.50;99.90;;;;;;5029079;28;19948;-59
2023/02/06 00:54:34;;;;;;;;;;;25.60;99.90;;;;;;5013780;28;19909;-63
2023/02/06 00:57:01;;;;;;;;;;;25.70;99.90;;;;;;5013924;28;20038;-73
2023/02/06 00:59:28;;;;;;;;;;;26.00;99.90;;;;;;5013244;28;20360;-59
2023/02/06 01:01:54;;;;;;;;;;;26.00;99.90;;;;;;5013388;28;19929;-59
2023/02/06 01:04:21;;;;;;;;;;;26.00;99.90;;;;;;5013864;28;20000;-60
2023/02/06 01:06:48;;;;;;;;;;;25.80;99.90;;;;;;5013714;28;19913;-61
2023/02/06 01:09:14;;;;;;;;;;;25.60;99.90;;;;;;5012785;28;20418;-60
2023/02/06 01:11:41;;;;;;;;;;;25.40;99.90;;;;;;5013551;28;20052;-62
2023/02/06 01:14:07;;;;;;;;;;;25.30;99.90;;;;;;5013763;28;19981;-59
2023/02/06 01:16:34;;;;;;;;;;;25.20;99.90;;;;;;5013677;28;19909;-59
2023/02/06 01:19:01;;;;;;;;;;;25.30;99.90;;;;;;5013025;28;19917;-59
2023/02/06 01:21:27;;;;;;;;;;;25.60;99.90;;;;;;5013299;28;20079;-59
2023/02/06 01:23:54;;;;;;;;;;;26.50;99.90;;;;;;5013406;28;19910;-59
2023/02/06 01:26:22;;;;;;;;;;;27.20;99.90;;;;;;5013133;28;19917;-59
2023/02/06 01:28:49;;;;;;;;;;;27.50;99.90;;;;;;5013279;28;19920;-61
2023/02/06 01:31:23;;;;;;;;;;;27.30;99.90;;;;;;5012691;28;20013;-59
2023/02/06 01:33:50;;;;;;;;;;;27.20;99.90;;;;;;5013154;28;19909;-60
2023/02/06 01:36:17;;;;;;;;;;;27.40;99.90;;;;;;5013193;28;19913;-59
2023/02/06 01:38:44;;;;;;;;;;;27.70;99.90;;;;;;5013117;28;19979;-59
2023/02/06 01:41:11;;;;;;;;;;;27.70;99.90;;;;;;5012350;28;19921;-60
2023/02/06 01:43:40;;;;;;;;;;;27.80;99.90;;;;;;4995511;28;19913;-60
2023/02/06 01:46:07;;;;;;;;;;;28.10;99.90;;;;;;5012769;28;19918;-59
2023/02/06 01:48:48;;;;;;;;;;;28.40;99.90;;;;;;5012871;28;20017;-61
2023/02/06 01:51:19;;;;;;;;;;;28.60;99.90;;;;;;5012551;28;19917;-59
2023/02/06 01:53:47;;;;;;;;;;;28.30;99.90;;;;;;5012840;28;19936;-59
2023/02/06 01:56:18;;;;;;;;;;;28.40;99.90;;;;;;5012851;28;20323;-59
2023/02/06 01:58:47;;;;;;;;;;;28.20;99.90;;;;;;5012687;28;19959;-59
2023/02/06 02:01:14;;;;;;;;;;;27.80;99.90;;;;;;5012025;28;19922;-59
2023/02/06 02:03:42;;;;;;;;;;;27.50;99.90;;;;;;5012725;28;19917;-59
2023/02/06 02:06:10;;;;;;;;;;;27.40;99.90;;;;;;5012657;28;20392;-59
2023/02/06 02:08:38;;;;;;;;;;;27.10;99.90;;;;;;5012550;28;19910;-60
2023/02/06 02:11:05;;;;;;;;;;;26.80;99.90;;;;;;5011963;28;19913;-59
2023/02/06 02:13:33;;;;;;;;;;;26.50;99.90;;;;;;5011687;28;19959;-66
2023/02/06 02:16:06;;;;;;;;;;;26.50;99.90;;;;;;5012679;28;19913;-60
2023/02/06 02:18:54;;;;;;;;;;;26.50;99.90;;;;;;5012587;28;19917;-60
2023/02/06 02:21:24;;;;;;;;;;;26.50;99.90;;;;;;5012192;28;19917;-60
2023/02/06 02:24:10;;;;;;;;;;;26.70;99.90;;;;;;5012340;28;19960;-59
2023/02/06 02:26:49;;;;;;;;;;;26.80;99.90;;;;;;5012104;28;19916;-59
2023/02/06 02:29:24;;;;;;;;;;;26.90;99.90;;;;;;5011777;28;19940;-61
2023/02/06 02:32:06;;;;;;;;;;;27.00;99.90;;;;;;5012324;28;20276;-61
2023/02/06 02:34:41;;;;;;;;;;;26.80;99.90;;;;;;5012364;28;20009;-60
2023/02/06 02:37:08;;;;;;;;;;;26.80;99.90;;;;;;5012394;28;20403;-60
2023/02/06 02:39:35;;;;;;;;;;;26.70;99.90;;;;;;5011453;28;19918;-60
2023/02/06 02:42:10;;;;;;;;;;;26.50;99.90;;;;;;5012170;28;20435;-59
2023/02/06 02:44:53;;;;;;;;;;;26.50;99.90;;;;;;5012169;28;20383;-60
2023/02/06 02:47:22;;;;;;;;;;;26.60;99.90;;;;;;5011680;28;19913;-59
2023/02/06 02:49:49;;;;;;;;;;;26.70;99.90;;;;;;5011864;28;19913;-60
2023/02/06 02:52:16;;;;;;;;;;;26.70;99.90;;;;;;5012099;28;19916;-59
2023/02/06 02:54:42;;;;;;;;;;;26.70;99.90;;;;;;5012093;28;20759;-59
2023/02/06 02:57:13;;;;;;;;;;;26.70;99.90;;;;;;5012074;28;19913;-60
2023/02/06 02:59:44;;;;;;;;;;;26.70;99.90;;;;;;5011482;28;19925;-60
2023/02/06 03:02:13;;;;;;;;;;;26.80;99.90;;;;;;5011715;28;19936;-61
2023/02/06 03:04:44;;;;;;;;;;;26.80;99.90;;;;;;5011843;28;20044;-60
2023/02/06 03:07:26;;;;;;;;;;;26.50;99.90;;;;;;5011918;28;20016;-61
2023/02/06 03:09:58;;;;;;;;;;;26.50;99.90;;;;;;5011306;28;20439;-60
2023/02/06 03:12:43;;;;;;;;;;;26.50;99.90;;;;;;5011937;28;19909;-60
2023/02/06 03:15:28;;;;;;;;;;;26.50;99.90;;;;;;5011754;28;19920;-59
2023/02/06 03:18:14;;;;;;;;;;;26.50;99.90;;;;;;5011783;28;19916;-60
2023/02/06 03:20:43;;;;;;;;;;;26.60;99.90;;;;;;5011240;28;19917;-62
2023/02/06 03:23:12;;;;;;;;;;;26.50;99.90;;;;;;5011775;28;19981;-60
2023/02/06 03:25:40;;;;;;;;;;;26.40;99.90;;;;;;5011811;28;20016;-60
2023/02/06 03:28:11;;;;;;;;;;;26.40;99.90;;;;;;5015595;28;19922;-60
2023/02/06 03:30:41;;;;;;;;;;;26.40;99.90;;;;;;5015131;28;20349;-59
2023/02/06 03:33:10;;;;;;;;;;;26.60;99.90;;;;;;5015498;28;19910;-59
2023/02/06 03:35:38;;;;;;;;;;;26.60;99.90;;;;;;5015073;28;19921;-59
2023/02/06 03:38:06;;;;;;;;;;;26.50;99.90;;;;;;5015795;28;19917;-65
2023/02/06 03:40:33;;;;;;;;;;;26.50;99.90;;;;;;5014906;28;19921;-60
2023/02/06 03:43:01;;;;;;;;;;;26.50;99.90;;;;;;5015316;28;20001;-59
2023/02/06 03:45:28;;;;;;;;;;;26.50;99.90;;;;;;5015254;28;19909;-59
2023/02/06 03:47:57;;;;;;;;;;;26.50;99.90;;;;;;5015388;28;19909;-59
2023/02/06 03:50:24;;;;;;;;;;;26.50;99.90;;;;;;5015028;28;19913;-59
2023/02/06 03:52:53;;;;;;;;;;;26.50;99.90;;;;;;5015075;28;20423;-59
2023/02/06 03:55:21;;;;;;;;;;;26.50;99.90;;;;;;5015029;28;19917;-59
2023/02/06 03:57:53;;;;;;;;;;;26.50;99.90;;;;;;5015068;28;20368;-59
2023/02/06 04:00:20;;;;;;;;;;;26.50;99.90;;;;;;5014581;28;19948;-59
2023/02/06 04:02:48;;;;;;;;;;;26.50;99.90;;;;;;5014603;28;19925;-59
2023/02/06 04:05:15;;;;;;;;;;;26.40;99.90;;;;;;5014684;28;19914;-59
2023/02/06 04:07:42;;;;;;;;;;;26.40;99.90;;;;;;5014869;28;20424;-60
2023/02/06 04:10:09;;;;;;;;;;;26.40;99.90;;;;;;5014233;28;20000;-59
2023/02/06 04:12:36;;;;;;;;;;;26.30;99.90;;;;;;5014811;28;20045;-61
2023/02/06 04:15:03;;;;;;;;;;;26.20;99.90;;;;;;5014657;28;20050;-60
2023/02/06 04:17:30;;;;;;;;;;;26.20;99.90;;;;;;5014323;28;19913;-61
2023/02/06 04:19:57;;;;;;;;;;;26.10;99.90;;;;;;5014061;28;20292;-59
2023/02/06 04:22:23;;;;;;;;;;;26.10;99.90;;;;;;5014361;28;19956;-60
2023/02/06 04:24:50;;;;;;;;;;;26.20;99.90;;;;;;5014415;28;19913;-59
2023/02/06 04:27:17;;;;;;;;;;;26.10;99.90;;;;;;5014080;28;20372;-66
2023/02/06 04:29:43;;;;;;;;;;;26.20;99.90;;;;;;4996360;28;19909;-60
2023/02/06 04:32:10;;;;;;;;;;;26.20;99.90;;;;;;5014521;28;19914;-61
2023/02/06 04:34:37;;;;;;;;;;;26.20;99.90;;;;;;5014093;28;19985;-60
2023/02/06 04:37:04;;;;;;;;;;;26.10;99.90;;;;;;5013554;28;19920;-64
2023/02/06 04:39:31;;;;;;;;;;;26.10;99.90;;;;;;5013331;28;19918;-62
2023/02/06 04:41:58;;;;;;;;;;;26.00;99.90;;;;;;5014158;28;19909;-59
2023/02/06 04:44:24;;;;;;;;;;;25.90;99.90;;;;;;5014101;28;19920;-59
2023/02/06 04:46:51;;;;;;;;;;;26.00;99.90;;;;;;5014034;28;19948;-59
2023/02/06 04:49:18;;;;;;;;;;;25.90;99.90;;;;;;5013643;28;20336;-59
2023/02/06 04:51:44;;;;;;;;;;;26.00;99.90;;;;;;5014044;28;19939;-60
2023/02/06 04:54:12;;;;;;;;;;;25.90;99.90;;;;;;5013808;28;19914;-59
2023/02/06 04:56:39;;;;;;;;;;;25.80;99.90;;;;;;5014145;28;19996;-59
2023/02/06 04:59:06;;;;;;;;;;;25.80;99.90;;;;;;5013601;28;20387;-59
2023/02/06 05:01:33;;;;;;;;;;;25.80;99.90;;;;;;5013419;28;19971;-58
2023/02/06 05:03:59;;;;;;;;;;;25.80;99.90;;;;;;5013824;28;20000;-59
2023/02/06 05:06:28;;;;;;;;;;;26.00;99.90;;;;;;5013794;28;19929;-59
2023/02/06 05:08:55;;;;;;;;;;;26.00;99.90;;;;;;5013225;28;19921;-59
2023/02/06 05:11:22;;;;;;;;;;;26.00;99.90;;;;;;5013421;28;19917;-60
2023/02/06 05:13:48;;;;;;;;;;;25.90;99.90;;;;;;5013688;28;19959;-61
2023/02/06 05:16:15;;;;;;;;;;;25.80;99.90;;;;;;5013820;28;19936;-59
2023/02/06 05:18:46;;;;;;;;;;;25.80;99.90;;;;;;5013317;28;19998;-58
2023/02/06 05:21:14;;;;;;;;;;;25.80;99.90;;;;;;5013361;28;19917;-59
2023/02/06 05:23:40;;;;;;;;;;;25.80;99.90;;;;;;5013440;28;19914;-59
2023/02/06 05:26:07;;;;;;;;;;;25.90;99.90;;;;;;5013674;28;19916;-59
2023/02/06 05:28:33;;;;;;;;;;;26.00;99.90;;;;;;5013642;28;19910;-59
2023/02/06 05:31:01;;;;;;;;;;;25.90;99.90;;;;;;5015703;28;19918;-59
2023/02/06 05:33:28;;;;;;;;;;;25.80;99.90;;;;;;5014022;28;19910;-59
2023/02/06 05:36:00;;;;;;;;;;;25.60;99.90;;;;;;5013842;28;19913;-59
2023/02/06 05:38:27;;;;;;;;;;;25.50;99.90;;;;;;5013413;28;19979;-59
2023/02/06 05:40:53;;;;;;;;;;;25.50;99.90;;;;;;5013092;28;19980;-59
2023/02/06 05:43:20;;;;;;;;;;;25.50;99.90;;;;;;5013136;28;20273;-58
2023/02/06 05:45:47;;;;;;;;;;;25.50;99.90;;;;;;5014029;28;19940;-59
2023/02/06 05:48:13;;;;;;;;;;;25.50;99.90;;;;;;5012872;28;19913;-62
2023/02/06 05:50:40;;;;;;;;;;;25.60;99.90;;;;;;5012724;28;20276;-61
2023/02/06 05:53:07;;;;;;;;;;;25.60;99.90;;;;;;5008973;28;19917;-61
2023/02/06 05:55:33;;;;;;;;;;;25.60;99.90;;;;;;5010709;28;20599;-59
2023/02/06 05:58:00;;;;;;;;;;;25.60;99.90;;;;;;5011245;28;19917;-59
2023/02/06 06:00:27;;;;;;;;;;;25.50;99.90;;;;;;5010829;28;19925;-59
2023/02/06 06:02:53;;;;;;;;;;;25.50;99.90;;;;;;5010857;28;19921;-67
2023/02/06 06:05:20;;;;;;;;;;;25.50;99.90;;;;;;5010299;28;20273;-59
2023/02/06 06:07:46;;;;;;;;;;;25.40;99.90;;;;;;5009723;28;19921;-59
2023/02/06 06:10:13;;;;;;;;;;;25.40;99.90;;;;;;5009734;28;19922;-59
2023/02/06 06:12:40;;;;;;;;;;;25.40;99.90;;;;;;5010687;28;19921;-63
2023/02/06 06:15:07;;;;;;;;;;;25.40;99.90;;;;;;5010555;28;19980;-60
2023/02/06 06:17:33;;;;;;;;;;;25.20;99.90;;;;;;5010150;28;19910;-59
2023/02/06 06:20:00;;;;;;;;;;;25.20;99.90;;;;;;5010225;28;19918;-63
2023/02/06 06:22:27;;;;;;;;;;;25.20;99.90;;;;;;5009754;28;20367;-61
2023/02/06 06:24:53;;;;;;;;;;;25.20;99.90;;;;;;5010321;28;19913;-59
2023/02/06 06:27:20;;;;;;;;;;;25.20;99.90;;;;;;5010128;28;19920;-59
2023/02/06 06:29:47;;;;;;;;;;;25.20;99.90;;;;;;5009980;28;19924;-59
2023/02/06 06:32:13;;;;;;;;;;;25.10;99.90;;;;;;5009978;28;19945;-64
2023/02/06 06:34:40;;;;;;;;;;;25.20;99.90;;;;;;5010389;28;19909;-60
2023/02/06 06:37:06;;;;;;;;;;;25.10;99.90;;;;;;5009301;28;19924;-59
2023/02/06 06:39:33;;;;;;;;;;;25.10;99.90;;;;;;5009440;28;20407;-58
2023/02/06 06:42:00;;;;;;;;;;;25.00;99.90;;;;;;5010236;28;19960;-59
2023/02/06 06:44:27;;;;;;;;;;;24.90;99.90;;;;;;5009892;28;19918;-58
2023/02/06 06:46:53;;;;;;;;;;;25.00;99.90;;;;;;5010087;28;19910;-59
2023/02/06 06:49:20;;;;;;;;;;;25.00;99.90;;;;;;5009641;28;19921;-60
2023/02/06 06:51:46;;;;;;;;;;;25.10;99.90;;;;;;5009145;28;19926;-65
2023/02/06 06:54:14;;;;;;;;;;;25.00;99.90;;;;;;5009908;28;19925;-59
2023/02/06 06:56:41;;;;;;;;;;;25.00;99.90;;;;;;5009791;28;19972;-59
2023/02/06 06:59:08;;;;;;;;;;;24.90;99.90;;;;;;5009770;28;19910;-59
2023/02/06 07:01:35;;;;;;;;;;;24.90;99.90;;;;;;5009047;28;19926;-60
2023/02/06 07:04:02;;;;;;;;;;;24.80;99.90;;;;;;5009869;28;19913;-59
2023/02/06 07:06:28;;;;;;;;;;;24.80;99.90;;;;;;5008982;28;19921;-59
2023/02/06 07:08:55;;;;;;;;;;;24.80;99.90;;;;;;5009573;28;19913;-59
2023/02/06 07:11:23;;;;;;;;;;;24.80;99.90;;;;;;5008981;28;19910;-59
2023/02/06 07:13:49;;;;;;;;;;;24.80;99.90;;;;;;5003419;28;19920;-59
2023/02/06 07:16:16;;;;;;;;;;;24.70;99.90;;;;;;5003623;28;19924;-60
2023/02/06 07:18:43;;;;;;;;;;;24.70;99.90;;;;;;5003132;28;19913;-59
2023/02/06 07:21:09;;;;;;;;;;;24.80;99.90;;;;;;5002923;28;19925;-62
2023/02/06 07:23:37;;;;;;;;;;;24.80;99.90;;;;;;5002809;28;20599;-59
2023/02/06 07:26:03;;;;;;;;;;;24.70;99.90;;;;;;5003345;28;20016;-60
2023/02/06 07:28:31;;;;;;;;;;;24.70;99.90;;;;;;5003265;28;19920;-69
2023/02/06 07:31:01;;;;;;;;;;;24.60;99.90;;;;;;5003445;28;19989;-60
2023/02/06 07:33:28;;;;;;;;;;;24.60;99.90;;;;;;5003460;28;20421;-63
2023/02/06 07:35:54;;;;;;;;;;;24.60;99.90;;;;;;5002544;28;19921;-62
2023/02/06 07:38:21;;;;;;;;;;;24.60;99.90;;;;;;5003405;28;19920;-62
2023/02/06 07:40:48;;;;;;;;;;;24.50;99.90;;;;;;5003254;28;19967;-59
2023/02/06 07:43:14;;;;;;;;;;;24.50;99.90;;;;;;5002945;28;19913;-61
2023/02/06 07:45:41;;;;;;;;;;;24.50;99.90;;;;;;5003209;28;19920;-64
2023/02/06 07:48:08;;;;;;;;;;;24.50;99.90;;;;;;5002946;28;19914;-77
2023/02/06 07:50:35;;;;;;;;;;;24.50;99.90;;;;;;5002017;28;19962;-71
2023/02/06 07:53:01;;;;;;;;;;;24.50;99.90;;;;;;5003442;28;19991;-65
2023/02/06 07:55:29;;;;;;;;;;;24.60;99.90;;;;;;5002589;28;20653;-70
2023/02/06 07:57:55;;;;;;;;;;;24.50;99.90;;;;;;5003132;28;19920;-71
2023/02/06 08:00:22;;;;;;;;;;;24.50;99.90;;;;;;5002572;28;19925;-72
2023/02/06 08:02:49;;;;;;;;;;;24.50;99.90;;;;;;5002505;28;19925;-72
2023/02/06 08:05:15;;;;;;;;;;;24.50;99.90;;;;;;5002142;28;19917;-75
2023/02/06 08:07:42;;;;;;;;;;;24.40;99.90;;;;;;5002931;28;20432;-70
2023/02/06 08:10:09;;;;;;;;;;;24.40;99.90;;;;;;5012137;28;19913;-64
2023/02/06 08:12:35;;;;;;;;;;;24.40;99.90;;;;;;5004346;28;20520;-64
2023/02/06 08:15:02;;;;;;;;;;;24.40;99.90;;;;;;5005928;28;19913;-63
2023/02/06 08:17:29;;;;;;;;;;;24.40;99.90;;;;;;5006199;28;20252;-63
2023/02/06 08:19:55;;;;;;;;;;;24.40;99.90;;;;;;5005510;28;20290;-67
2023/02/06 08:22:22;;;;;;;;;;;24.40;99.90;;;;;;5005494;28;19925;-64
2023/02/06 08:24:49;;;;;;;;;;;24.30;99.90;;;;;;5004643;28;19925;-60
2023/02/06 08:27:15;;;;;;;;;;;24.20;99.90;;;;;;5006330;28;19922;-74
2023/02/06 08:29:42;;;;;;;;;;;24.10;99.90;;;;;;5005394;28;20685;-64
2023/02/06 08:32:09;;;;;;;;;;;24.10;99.90;;;;;;5011991;28;19913;-69
2023/02/06 08:34:38;;;;;;;;;;;24.10;99.90;;;;;;5014441;28;20178;-60
2023/02/06 08:37:04;;;;;;;;;;;24.00;99.90;;;;;;5014297;28;20288;-74
2023/02/06 08:39:31;;;;;;;;;;;24.00;99.90;;;;;;5013697;28;20292;-63
2023/02/06 08:42:01;;;;;;;;;;;24.00;99.90;;;;;;5014350;28;19910;-62
2023/02/06 08:44:28;;;;;;;;;;;24.00;99.90;;;;;;5014290;28;19963;-69
2023/02/06 08:46:54;;;;;;;;;;;24.00;99.90;;;;;;5013474;28;19913;-70
2023/02/06 08:49:22;;;;;;;;;;;24.00;99.90;;;;;;5013772;28;20299;-71
2023/02/06 08:51:49;;;;;;;;;;;24.00;99.90;;;;;;5014241;28;19917;-66
2023/02/06 08:54:17;;;;;;;;;;;24.00;99.90;;;;;;5014106;28;19914;-66
2023/02/06 08:56:43;;;;;;;;;;;24.00;99.90;;;;;;5014240;28;19913;-61
2023/02/06 08:59:11;;;;;;;;;;;23.90;99.90;;;;;;5013789;28;19913;-60
2023/02/06 09:01:38;;;;;;;;;;;23.90;99.90;;;;;;5013119;28;19965;-57
2023/02/06 09:04:06;;;;;;;;;;;23.90;99.90;;;;;;5013784;28;20004;-58
2023/02/06 09:06:37;;;;;;;;;;;23.80;99.90;;;;;;5013667;28;20253;-64
2023/02/06 09:09:04;;;;;;;;;;;23.80;99.90;;;;;;5013230;28;20279;-58
2023/02/06 09:11:31;;;;;;;;;;;23.70;99.90;;;;;;4993904;28;19920;-60
2023/02/06 09:13:58;;;;;;;;;;;23.70;99.90;;;;;;4994271;28;19914;-58
2023/02/06 09:16:26;;;;;;;;;;;23.80;99.90;;;;;;5003142;28;20747;-58
2023/02/06 09:18:53;;;;;;;;;;;23.80;99.90;;;;;;5013213;28;19909;-59
2023/02/06 09:21:21;;;;;;;;;;;23.70;99.90;;;;;;5011439;28;19922;-58
2023/02/06 09:23:52;;;;;;;;;;;23.70;99.90;;;;;;5011609;28;19913;-62
2023/02/06 09:26:23;;;;;;;;;;;23.70;99.90;;;;;;5011536;28;19918;-60
2023/02/06 09:28:53;;;;;;;;;;;23.70;99.90;;;;;;5011304;28;19914;-59
2023/02/06 09:31:20;;;;;;;;;;;23.70;99.90;;;;;;5010723;28;19941;-59
2023/02/06 09:33:46;;;;;;;;;;;23.60;99.90;;;;;;5011372;28;19920;-58
2023/02/06 09:36:14;;;;;;;;;;;23.60;99.90;;;;;;5011445;28;20008;-58
2023/02/06 09:38:43;;;;;;;;;;;23.60;99.90;;;;;;5010637;28;20000;-59
2023/02/06 09:41:17;;;;;;;;;;;23.60;99.90;;;;;;5011749;28;19922;-58
2023/02/06 09:43:51;;;;;;;;;;;23.60;99.90;;;;;;5011477;28;19913;-59
2023/02/06 09:46:22;;;;;;;;;;;23.60;99.90;;;;;;5011297;28;20295;-60
2023/02/06 09:48:49;;;;;;;;;;;23.50;99.90;;;;;;5010496;28;19937;-59
2023/02/06 09:51:38;;;;;;;;;;;23.50;99.90;;;;;;5010991;28;20016;-59
2023/02/06 09:54:12;;;;;;;;;;;23.50;99.90;;;;;;5002711;28;20480;-59
2023/02/06 09:57:01;;;;;;;;;;;23.50;99.90;;;;;;5011268;28;20005;-59
2023/02/06 09:59:31;;;;;;;;;;;23.40;99.90;;;;;;5010594;28;19913;-60
2023/02/06 10:02:17;;;;;;;;;;;23.40;99.90;;;;;;5010607;28;19922;-62
2023/02/06 10:04:50;;;;;;;;;;;23.50;99.90;;;;;;5011060;28;19992;-59
2023/02/06 10:07:25;;;;;;;;;;;23.40;99.90;;;;;;5008150;28;20400;-65
2023/02/06 10:09:57;;;;;;;;;;;23.40;99.90;;;;;;5003667;28;19918;-65
2023/02/06 10:12:30;;;;;;;;;;;23.50;99.90;;;;;;5004790;28;19960;-59
2023/02/06 10:15:00;;;;;;;;;;;23.50;99.90;;;;;;5004404;28;19925;-60
2023/02/06 10:17:29;;;;;;;;;;;23.40;99.90;;;;;;5002830;28;19921;-70
2023/02/06 10:20:02;;;;;;;;;;;23.50;99.90;;;;;;5003135;28;19929;-69
2023/02/06 10:22:47;;;;;;;;;;;23.40;99.90;;;;;;5003239;28;19917;-59
2023/02/06 10:25:17;;;;;;;;;;;23.40;99.90;;;;;;5002899;28;19999;-63
2023/02/06 10:27:44;;;;;;;;;;;23.50;99.90;;;;;;5002570;28;19924;-74
2023/02/06 10:30:18;;;;;;;;;;;23.50;99.90;;;;;;4973173;28;19917;-66
2023/02/06 10:33:00;;;;;;;;;;;23.40;99.90;;;;;;4984755;28;19913;-67
2023/02/06 10:35:34;;;;;;;;;;;23.40;99.90;;;;;;5001330;28;19929;-61
2023/02/06 10:38:13;;;;;;;;;;;23.40;99.90;;;;;;5003189;28;19956;-60
2023/02/06 10:40:48;;;;;;;;;;;23.40;99.90;;;;;;5003272;28;19929;-62
2023/02/06 10:43:23;;;;;;;;;;;23.30;99.90;;;;;;5003216;28;19920;-66
2023/02/06 10:45:56;;;;;;;;;;;23.40;99.90;;;;;;5003686;28;20059;-72
2023/02/06 10:48:38;;;;;;;;;;;23.30;99.90;;;;;;5003196;28;20303;-77
2023/02/06 10:51:30;;;;;;;;;;;23.30;99.90;;;;;;5003496;28;20012;-59
2023/02/06 10:53:59;;;;;;;;;;;23.30;99.90;;;;;;5002189;28;19921;-59
2023/02/06 10:56:27;;;;;;;;;;;23.30;99.90;;;;;;5003853;28;19919;-61
2023/02/06 10:58:58;;;;;;;;;;;23.30;99.90;;;;;;5002365;28;19964;-59
2023/02/06 11:01:25;;;;;;;;;;;23.30;99.90;;;;;;5001780;28;19932;-61
2023/02/06 11:04:02;;;;;;;;;;;23.30;99.90;;;;;;5003855;28;19914;-65
2023/02/06 11:06:29;;;;;;;;;;;23.40;99.90;;;;;;5002791;28;20346;-73
2023/02/06 11:08:56;;;;;;;;;;;23.40;99.90;;;;;;5002866;28;19913;-69
2023/02/06 11:11:25;;;;;;;;;;;23.40;99.90;;;;;;5003018;28;20006;-64
2023/02/06 11:13:54;;;;;;;;;;;23.40;99.90;;;;;;5002310;28;20350;-66
2023/02/06 11:16:23;;;;;;;;;;;23.40;99.90;;;;;;5003315;28;19921;-59
2023/02/06 11:18:50;;;;;;;;;;;23.40;99.90;;;;;;5002321;28;19921;-66
2023/02/06 11:21:37;;;;;;;;;;;23.50;99.90;;;;;;5002362;28;19973;-60
2023/02/06 11:24:11;;;;;;;;;;;23.40;99.90;;;;;;5002781;28;19917;-59
2023/02/06 11:26:41;;;;;;;;;;;23.50;99.90;;;;;;5001730;28;19917;-69
2023/02/06 11:29:13;;;;;;;;;;;23.50;99.90;;;;;;5002122;28;19925;-62
2023/02/06 11:31:41;;;;;;;;;;;23.50;99.90;;;;;;5002626;28;20292;-61
2023/02/06 11:34:20;;;;;;;;;;;23.50;99.90;;;;;;5003591;28;19919;-71
2023/02/06 11:36:50;;;;;;;;;;;23.50;99.90;;;;;;5003174;28;19921;-63
2023/02/06 11:39:22;;;;;;;;;;;23.50;99.90;;;;;;5003550;28;19921;-67
2023/02/06 11:41:59;;;;;;;;;;;23.50;99.90;;;;;;5002865;28;20454;-70
2023/02/06 11:44:26;;;;;;;;;;;23.50;99.90;;;;;;5003478;28;20032;-70
2023/02/06 11:46:53;;;;;;;;;;;23.50;99.90;;;;;;5004417;28;19948;-59
2023/02/06 11:49:24;;;;;;;;;;;23.60;99.90;;;;;;5006890;28;19914;-60
2023/02/06 11:51:55;;;;;;;;;;;23.50;99.90;;;;;;5006055;28;19925;-64
2023/02/06 11:54:34;;;;;;;;;;;23.60;99.90;;;;;;5007593;28;19989;-59
2023/02/06 11:57:09;;;;;;;;;;;23.50;99.90;;;;;;5007045;28;20000;-59
2023/02/06 11:59:38;;;;;;;;;;;23.50;99.90;;;;;;5012719;28;20380;-60
2023/02/06 12:02:23;;;;;;;;;;;23.50;99.90;;;;;;5015298;28;19945;-60
2023/02/06 12:04:51;;;;;;;;;;;23.60;99.90;;;;;;5015529;28;19918;-59
2023/02/06 12:07:18;;;;;;;;;;;23.50;99.90;;;;;;5013778;28;19917;-59
2023/02/06 12:09:45;;;;;;;;;;;23.60;99.90;;;;;;5015027;28;19909;-59
2023/02/06 12:12:17;;;;;;;;;;;23.50;99.90;;;;;;5014792;28;19913;-60
2023/02/06 12:14:47;;;;;;;;;;;23.60;99.90;;;;;;5014398;28;19960;-63
2023/02/06 12:17:24;;;;;;;;;;;23.60;99.90;;;;;;5014178;28;19949;-63
2023/02/06 12:19:56;;;;;;;;;;;23.60;99.90;;;;;;5014058;28;19926;-59
2023/02/06 12:22:25;;;;;;;;;;;23.60;99.90;;;;;;5013868;28;19917;-61
2023/02/06 12:24:53;;;;;;;;;;;23.60;99.90;;;;;;5015017;28;20005;-60
2023/02/06 12:27:24;;;;;;;;;;;23.60;99.90;;;;;;5014794;28;19964;-62
2023/02/06 12:29:56;;;;;;;;;;;23.60;99.90;;;;;;5014592;28;19913;-65
2023/02/06 12:32:32;;;;;;;;;;;23.60;99.90;;;;;;5014967;28;19910;-60
2023/02/06 12:35:03;;;;;;;;;;;23.60;99.90;;;;;;5014779;28;20454;-61
2023/02/06 12:37:38;;;;;;;;;;;23.60;99.90;;;;;;5013551;28;19918;-60
2023/02/06 12:40:25;;;;;;;;;;;23.60;99.90;;;;;;5012901;28;19922;-59
2023/02/06 12:42:56;;;;;;;;;;;23.60;99.90;;;;;;4984132;28;19916;-60
2023/02/06 12:45:26;;;;;;;;;;;23.50;99.90;;;;;;5014420;28;19913;-61
2023/02/06 12:47:58;;;;;;;;;;;23.60;99.90;;;;;;5013497;28;20004;-59
2023/02/06 12:50:30;;;;;;;;;;;23.50;99.90;;;;;;5014287;28;19913;-62
2023/02/06 12:52:57;;;;;;;;;;;23.50;99.90;;;;;;5014497;28;19917;-58
2023/02/06 12:55:36;;;;;;;;;;;23.50;99.90;;;;;;5014410;28;19928;-59
2023/02/06 12:58:03;;;;;;;;;;;23.50;99.90;;;;;;5013724;28;19937;-62
2023/02/06 13:00:31;;;;;;;;;;;23.60;99.90;;;;;;5014168;28;20239;-59
2023/02/06 13:03:03;;;;;;;;;;;23.60;99.90;;;;;;5013451;28;20295;-59
2023/02/06 13:05:34;;;;;;;;;;;23.60;99.90;;;;;;5013820;28;20335;-61
2023/02/06 13:08:09;;;;;;;;;;;23.60;99.90;;;;;;5013783;28;20346;-60
2023/02/06 13:10:36;;;;;;;;;;;23.50;99.90;;;;;;5013917;28;19918;-62
2023/02/06 13:13:03;;;;;;;;;;;23.50;99.90;;;;;;5014080;28;19955;-59
2023/02/06 13:15:40;;;;;;;;;;;23.60;99.90;;;;;;5013766;28;20295;-65
2023/02/06 13:18:25;;;;;;;;;;;23.50;99.90;;;;;;4994157;28;19918;-59
2023/02/06 13:21:10;;;;;;;;;;;23.60;99.90;;;;;;4994245;28;20336;-59
2023/02/06 13:23:47;;;;;;;;;;;23.60;99.90;;;;;;4994083;28;19921;-59
2023/02/06 13:26:14;;;;;;;;;;;23.60;99.90;;;;;;5001928;28;20365;-65
2023/02/06 13:28:41;;;;;;;;;;;23.60;99.90;;;;;;5013505;28;19910;-67
2023/02/06 13:31:20;;;;;;;;;;;23.60;99.90;;;;;;5013924;28;19917;-60
2023/02/06 13:33:50;;;;;;;;;;;23.60;99.90;;;;;;5013862;28;20012;-62
2023/02/06 13:36:36;;;;;;;;;;;23.50;99.90;;;;;;5012769;28;19928;-68
2023/02/06 13:39:32;;;;;;;;;;;23.50;99.90;;;;;;5013153;28;20490;-74
2023/02/06 13:42:02;;;;;;;;;;;23.60;99.90;;;;;;5000636;28;20056;-65
2023/02/06 13:44:34;;;;;;;;;;;23.60;99.90;;;;;;5013638;28;19914;-65
2023/02/06 13:47:05;;;;;;;;;;;23.60;99.90;;;;;;5013545;28;19932;-69
2023/02/06 13:49:50;;;;;;;;;;;23.60;99.90;;;;;;5012928;28;20296;-62
2023/02/06 13:52:19;;;;;;;;;;;23.60;99.90;;;;;;5012662;28;19917;-67
2023/02/06 13:54:58;;;;;;;;;;;23.60;99.90;;;;;;5013263;28;19984;-65
2023/02/06 13:57:33;;;;;;;;;;;23.50;99.90;;;;;;5012962;28;19914;-64
2023/02/06 14:00:03;;;;;;;;;;;23.50;99.90;;;;;;5012753;28;20296;-70
2023/02/06 14:02:38;;;;;;;;;;;23.50;99.90;;;;;;5013173;28;20311;-65
2023/02/06 14:05:09;;;;;;;;;;;23.50;99.90;;;;;;5012547;28;19916;-60
2023/02/06 14:07:45;;;;;;;;;;;23.50;99.90;;;;;;4993246;28;19964;-68
2023/02/06 14:13:08;;;;;;;;;;;23.50;99.90;;;;;;5013017;28;19956;-63
2023/02/06 14:15:55;;;;;;;;;;;23.40;99.90;;;;;;5012848;28;19974;-72
2023/02/06 14:18:30;;;;;;;;;;;23.40;99.90;;;;;;5012199;28;19909;-68
2023/02/06 14:21:09;;;;;;;;;;;23.40;99.90;;;;;;5012105;28;20028;-66
2023/02/06 14:23:44;;;;;;;;;;;23.40;99.90;;;;;;5012674;28;19910;-66
2023/02/06 14:26:13;;;;;;;;;;;23.40;99.90;;;;;;5012745;28;19949;-69
2023/02/06 14:28:52;;;;;;;;;;;23.40;99.90;;;;;;5012465;28;19972;-62
2023/02/06 14:31:37;;;;;;;;;;;23.50;99.90;;;;;;5012624;28;20356;-66
2023/02/06 14:34:06;;;;;;;;;;;23.50;99.90;;;;;;5012653;28;19913;-70